Bemidji Regional Airport Bemidji US
ICAO: KBJI
IATA: BJI
Category: Medium
Scheduled Services: No

Elevation: 1391 ft
TransAlt. 18000 ft.

Airport Communications:
AWOS 3:119.275
MINNEAPOLIS CNTR:134.75
PRINCETON RDO:123.6
CTAF/UNICOM:122.8

KBJI Zoom In..

If you have problems with the map follow the link
https://www.worldairports.se/pages/airport.php?
ICAO=KBJI

Runways:

(A) RW 07 length 5700 ft width 150 ft
---- / hdg 70

(B) RW 13 length 7004 ft width 150 ft
---- / hdg 130

(C) RW 25 length 5700 ft width 150 ft
ILS 109.35 / hdg 250

(D) RW 31 length 7004 ft width 150 ft
ILS 111.90 / hdg 310

Location; KBJI
Day. 19 / Time. 20.56 Zulu
* Altimeter: 30.60
* Temperature: -16° c. -3.2°f.
* Wind from: 290° Speed 12 kn with Gusts up to 15 kn.
Dewpoint: -23° c.
Visibility: 10 Statute Miles.
Clouds: Clear (automated report).

KBJI 192056Z AUTO 29012G15KT 10SM CLR M16/M23 A3060 RMK AO2 T11601231


Wind From 290°
Speed 12 kn.

 
 
jpsmedia worldairports.se 2020   terms of use